Time;durP1;ratioP1;P1;durP2;ratioP2;P2;SDS_P1;SDS_P2;PMS_P1;PMS_P2;Temp;Humidity;BMP_temperature;BMP_pressure;BME280_temperature;BME280_humidity;BME280_pressure;Samples;Min_cycle;Max_cycle;Signal;HPM_P1;HPM_P2
2022/12/08 00:01:27;;;;;;;65.47;24.92;;;0.40;99.90;;;;;;4709587;30;20111;-77
2022/12/08 00:03:56;;;;;;;66.32;24.92;;;0.40;99.90;;;;;;4716704;30;20051;-78
2022/12/08 00:09:22;;;;;;;65.80;23.33;;;0.30;99.90;;;;;;4729984;30;20045;-78
2022/12/08 00:11:59;;;;;;;65.35;23.42;;;0.30;99.90;;;;;;4714525;30;20560;-78
2022/12/08 00:14:38;;;;;;;67.05;24.05;;;0.40;99.90;;;;;;4722153;30;20406;-78
2022/12/08 00:17:06;;;;;;;58.42;22.55;;;0.40;99.90;;;;;;4728878;30;20539;-78
2022/12/08 00:19:33;;;;;;;58.00;21.70;;;0.30;99.90;;;;;;4711471;30;20560;-78
2022/12/08 00:22:02;;;;;;;55.67;21.63;;;0.40;99.90;;;;;;4704511;30;20076;-78
2022/12/08 00:24:31;;;;;;;68.07;22.98;;;0.30;99.90;;;;;;4718067;30;20049;-78
2022/12/08 00:26:58;;;;;;;60.75;20.27;;;0.30;99.90;;;;;;4718491;30;20072;-77
2022/12/08 00:29:25;;;;;;;56.88;21.42;;;0.30;99.90;;;;;;4708641;30;20045;-78
2022/12/08 00:31:52;;;;;;;59.10;22.08;;;0.30;99.90;;;;;;4729124;30;20057;-78
2022/12/08 00:34:19;;;;;;;59.70;22.08;;;0.30;99.90;;;;;;4721441;30;20436;-78
2022/12/08 00:36:46;;;;;;;59.00;22.42;;;0.30;99.90;;;;;;4698303;30;20053;-77
2022/12/08 00:39:15;;;;;;;55.13;20.15;;;0.30;99.90;;;;;;4708360;30;20548;-78
2022/12/08 00:44:28;;;;;;;55.20;19.08;;;0.30;99.90;;;;;;4733028;30;20387;-78
2022/12/08 00:46:55;;;;;;;54.40;19.73;;;0.30;99.90;;;;;;4719684;30;20047;-78
2022/12/08 00:49:23;;;;;;;55.38;19.85;;;0.20;99.90;;;;;;4703612;30;20084;-78
2022/12/08 00:51:50;;;;;;;59.13;20.55;;;0.20;99.90;;;;;;4716444;30;20052;-78
2022/12/08 00:54:19;;;;;;;79.15;27.73;;;0.30;99.90;;;;;;4715693;30;20056;-78
2022/12/08 00:56:46;;;;;;;70.32;24.73;;;0.20;99.90;;;;;;4717991;30;20645;-78
2022/12/08 00:59:14;;;;;;;60.80;23.55;;;0.20;99.90;;;;;;4715548;30;20477;-78
2022/12/08 01:01:43;;;;;;;65.22;23.55;;;0.20;99.90;;;;;;4713863;30;20083;-78
2022/12/08 01:04:14;;;;;;;63.20;23.00;;;0.20;99.90;;;;;;4727945;30;20076;-78
2022/12/08 01:06:42;;;;;;;65.22;22.23;;;0.20;99.90;;;;;;4732124;30;22383;-78
2022/12/08 01:09:11;;;;;;;65.22;24.00;;;0.10;99.90;;;;;;4725387;30;20076;-78
2022/12/08 01:11:38;;;;;;;58.22;21.83;;;0.20;99.90;;;;;;4723846;30;20041;-78
2022/12/08 01:14:05;;;;;;;54.50;20.33;;;0.10;99.90;;;;;;4733988;30;20061;-78
2022/12/08 01:16:34;;;;;;;66.70;23.45;;;0.10;99.90;;;;;;4737040;30;20045;-77
2022/12/08 01:19:02;;;;;;;64.72;23.38;;;0.10;99.90;;;;;;4726255;30;20081;-78
2022/12/08 01:21:30;;;;;;;63.47;22.02;;;0.10;99.90;;;;;;4719266;30;20059;-78
2022/12/08 01:23:59;;;;;;;53.38;20.58;;;0.00;99.90;;;;;;4702577;30;20414;-78
2022/12/08 01:26:26;;;;;;;58.28;19.88;;;0.00;99.90;;;;;;4701296;30;20060;-78
2022/12/08 01:28:53;;;;;;;56.25;19.52;;;0.00;99.90;;;;;;4730180;30;20063;-78
2022/12/08 01:31:21;;;;;;;59.15;20.75;;;0.10;99.90;;;;;;4732759;30;20554;-78
2022/12/08 01:33:50;;;;;;;64.57;25.25;;;0.00;99.90;;;;;;4721525;30;20049;-78
2022/12/08 01:36:25;;;;;;;58.53;22.55;;;0.00;99.90;;;;;;4708320;30;20140;-78
2022/12/08 01:38:55;;;;;;;58.25;20.88;;;0.00;99.90;;;;;;4704774;30;20052;-78
2022/12/08 01:41:24;;;;;;;53.45;19.20;;;0.00;99.90;;;;;;4723388;30;20048;-78
2022/12/08 01:44:09;;;;;;;59.17;20.63;;;0.00;99.90;;;;;;4720382;30;20048;-78
2022/12/08 01:46:40;;;;;;;55.33;20.75;;;-0.10;99.90;;;;;;4714608;30;20055;-78
2022/12/08 01:49:09;;;;;;;48.22;19.88;;;-0.10;99.90;;;;;;4734311;30;20123;-78
2022/12/08 01:52:09;;;;;;;49.75;20.00;;;-0.10;99.90;;;;;;4699246;30;20184;-78
2022/12/08 01:54:48;;;;;;;54.67;20.08;;;-0.10;99.90;;;;;;4719565;30;20513;-78
2022/12/08 01:57:34;;;;;;;55.42;21.30;;;-0.10;99.90;;;;;;4720568;30;20151;-78
2022/12/08 02:00:06;;;;;;;55.50;20.48;;;-0.10;99.90;;;;;;4715558;30;20472;-78
2022/12/08 02:02:53;;;;;;;60.88;21.77;;;-0.20;99.90;;;;;;4720134;30;20456;-78
2022/12/08 02:05:24;;;;;;;59.67;22.63;;;-0.20;99.90;;;;;;4734187;30;20119;-78
2022/12/08 02:07:53;;;;;;;67.75;23.90;;;-0.20;99.90;;;;;;4731385;30;20041;-77
2022/12/08 02:10:23;;;;;;;61.63;23.85;;;-0.20;99.90;;;;;;4735683;30;20037;-77
2022/12/08 02:12:54;;;;;;;59.92;23.77;;;-0.20;99.90;;;;;;4711060;30;20057;-78
2022/12/08 02:15:44;;;;;;;65.07;23.95;;;-0.20;99.90;;;;;;4719348;30;20066;-78
2022/12/08 02:18:42;;;;;;;66.32;24.70;;;-0.20;99.90;;;;;;4678523;30;20422;-78
2022/12/08 02:21:25;;;;;;;64.68;25.23;;;-0.20;99.90;;;;;;4719672;30;20057;-78
2022/12/08 02:23:52;;;;;;;;;;;-0.20;99.90;;;;;;4720625;30;20041;-78
2022/12/08 02:26:31;;;;;;;71.32;26.60;;;-0.20;99.90;;;;;;4731791;30;20401;-78
2022/12/08 02:29:38;;;;;;;73.00;25.45;;;-0.30;99.90;;;;;;4719511;30;20056;-78
2022/12/08 02:32:11;;;;;;;78.22;26.45;;;-0.20;99.90;;;;;;4714354;30;20064;-78
2022/12/08 02:35:04;;;;;;;;;;;-0.20;99.90;;;;;;4722302;30;20052;-78
2022/12/08 02:37:37;;;;;;;73.40;26.08;;;-0.20;99.90;;;;;;4686487;30;19927;-78
2022/12/08 02:40:19;;;;;;;86.70;28.02;;;-0.20;99.90;;;;;;4675899;30;20108;-78
2022/12/08 02:42:56;;;;;;;80.63;27.73;;;-0.20;99.90;;;;;;4683293;30;20064;-78
2022/12/08 02:45:38;;;;;;;74.82;28.20;;;-0.10;99.90;;;;;;4665860;30;20057;-78
2022/12/08 02:48:08;;;;;;;73.55;27.60;;;-0.10;99.90;;;;;;4696463;30;20076;-77
2022/12/08 02:50:35;;;;;;;88.22;31.08;;;-0.10;99.90;;;;;;4683163;30;20511;-78
2022/12/08 02:53:02;;;;;;;84.15;31.60;;;-0.10;99.90;;;;;;4668340;30;20088;-78
2022/12/08 02:55:50;;;;;;;73.40;30.13;;;-0.10;99.90;;;;;;4683972;30;20064;-78
2022/12/08 02:58:41;;;;;;;73.15;28.80;;;-0.10;99.90;;;;;;4676924;30;20076;-78
2022/12/08 03:01:14;;;;;;;72.00;28.95;;;-0.10;99.90;;;;;;4681400;30;20058;-77
2022/12/08 03:03:56;;;;;;;77.55;29.05;;;-0.20;99.90;;;;;;4668650;30;20046;-78
2022/12/08 03:06:53;;;;;;;65.55;25.80;;;-0.10;99.90;;;;;;4696490;30;20053;-78
2022/12/08 03:09:53;;;;;;;59.35;23.65;;;-0.10;99.90;;;;;;4693888;30;23912;-78
2022/12/08 03:12:30;;;;;;;73.45;24.90;;;-0.10;99.90;;;;;;4662033;30;20057;-78
2022/12/08 03:15:01;;;;;;;61.85;24.13;;;-0.10;99.90;;;;;;4693593;30;20469;-78
2022/12/08 03:17:30;;;;;;;57.72;23.40;;;-0.10;99.90;;;;;;4702093;30;20145;-78
2022/12/08 03:20:02;;;;;;;61.38;22.90;;;-0.10;99.90;;;;;;4719078;30;20067;-78
2022/12/08 03:22:31;;;;;;;56.80;22.50;;;-0.10;99.90;;;;;;4707258;30;20059;-78
2022/12/08 03:24:59;;;;;;;53.28;20.35;;;-0.10;99.90;;;;;;4729055;30;20041;-78
2022/12/08 03:27:30;;;;;;;63.60;21.90;;;0.00;99.90;;;;;;4716620;30;20139;-78
2022/12/08 03:29:59;;;;;;;57.95;21.65;;;-0.10;99.90;;;;;;4730955;30;20064;-78
2022/12/08 03:32:34;;;;;;;57.55;23.25;;;-0.10;99.90;;;;;;4704560;30;20425;-78
2022/12/08 03:35:07;;;;;;;57.08;22.08;;;-0.10;99.90;;;;;;4718900;30;20069;-78
2022/12/08 03:37:39;;;;;;;57.17;21.27;;;-0.10;99.90;;;;;;4731019;30;20060;-78
2022/12/08 03:40:09;;;;;;;64.32;22.15;;;-0.10;99.90;;;;;;4724069;30;20072;-78
2022/12/08 03:42:36;;;;;;;54.50;20.50;;;-0.10;99.90;;;;;;4717903;30;20056;-78
2022/12/08 03:45:04;;;;;;;54.13;21.15;;;0.00;99.90;;;;;;4722015;30;20044;-78
2022/12/08 03:47:31;;;;;;;53.95;19.75;;;0.00;99.90;;;;;;4713698;30;20059;-77
2022/12/08 03:49:58;;;;;;;61.38;23.48;;;0.00;99.90;;;;;;4724157;30;20045;-78
2022/12/08 03:52:25;;;;;;;54.17;20.55;;;0.00;99.90;;;;;;4718323;30;20429;-78
2022/12/08 03:54:52;;;;;;;57.30;22.55;;;0.00;99.90;;;;;;4705059;30;20044;-78
2022/12/08 03:57:20;;;;;;;64.05;22.10;;;0.00;99.90;;;;;;4717523;30;20070;-78
2022/12/08 03:59:47;;;;;;;64.45;23.60;;;0.00;99.90;;;;;;4702036;30;20144;-78
2022/12/08 04:02:14;;;;;;;75.72;27.70;;;0.10;99.90;;;;;;4730005;30;20048;-78
2022/12/08 04:04:42;;;;;;;71.53;25.30;;;0.10;99.90;;;;;;4717792;30;20064;-78
2022/12/08 04:07:09;;;;;;;63.75;24.40;;;0.10;99.90;;;;;;4704720;30;20502;-78
2022/12/08 04:09:36;;;;;;;59.67;23.35;;;0.10;99.90;;;;;;4717748;30;20064;-78
2022/12/08 04:12:03;;;;;;;51.55;22.25;;;0.10;99.90;;;;;;4716092;30;20110;-78
2022/12/08 04:14:30;;;;;;;65.70;22.17;;;0.10;99.90;;;;;;4715271;30;20402;-78
2022/12/08 04:16:57;;;;;;;64.10;21.92;;;0.10;99.90;;;;;;4717060;30;20498;-78
2022/12/08 04:19:24;;;;;;;57.47;22.92;;;0.10;99.90;;;;;;4734476;30;20103;-78
2022/12/08 04:21:52;;;;;;;55.88;23.63;;;0.20;99.90;;;;;;4706469;30;20061;-78
2022/12/08 04:24:19;;;;;;;65.07;24.13;;;0.20;99.90;;;;;;4716787;30;20049;-78
2022/12/08 04:26:46;;;;;;;69.57;25.90;;;0.10;99.90;;;;;;4703327;30;20103;-78
2022/12/08 04:29:13;;;;;;;66.63;24.90;;;0.20;99.90;;;;;;4735003;30;20106;-78
2022/12/08 04:31:40;;;;;;;71.28;26.13;;;0.20;99.90;;;;;;4709248;30;20064;-78
2022/12/08 04:34:08;;;;;;;61.53;24.80;;;0.20;99.90;;;;;;4706028;30;20045;-78
2022/12/08 04:36:35;;;;;;;59.97;24.80;;;0.20;99.90;;;;;;4730992;30;20064;-78
2022/12/08 04:39:03;;;;;;;60.28;26.60;;;0.20;99.90;;;;;;4700418;30;20084;-78
2022/12/08 04:41:30;;;;;;;63.85;24.23;;;0.20;99.90;;;;;;4718778;30;20102;-78
2022/12/08 04:43:57;;;;;;;62.70;23.98;;;0.20;99.90;;;;;;4710179;30;20060;-78
2022/12/08 04:46:24;;;;;;;60.08;23.10;;;0.30;99.90;;;;;;4727484;30;20041;-78
2022/12/08 04:48:51;;;;;;;53.63;22.27;;;0.20;99.90;;;;;;4717468;30;20045;-78
2022/12/08 04:51:19;;;;;;;52.95;22.25;;;0.20;99.90;;;;;;4730108;30;20053;-78
2022/12/08 04:53:47;;;;;;;57.58;22.67;;;0.30;99.90;;;;;;4722218;30;20304;-78
2022/12/08 04:56:16;;;;;;;51.20;21.70;;;0.30;99.90;;;;;;4713448;30;20055;-78
2022/12/08 04:58:44;;;;;;;60.33;22.58;;;0.30;99.90;;;;;;4735936;30;20057;-78
2022/12/08 05:01:11;;;;;;;52.17;21.05;;;0.30;99.90;;;;;;4723019;30;20679;-78
2022/12/08 05:03:38;;;;;;;49.65;21.02;;;0.30;99.90;;;;;;4717440;30;20128;-78
2022/12/08 05:06:06;;;;;;;53.97;21.00;;;0.30;99.90;;;;;;4718957;30;20382;-78
2022/12/08 05:08:33;;;;;;;52.85;22.73;;;0.20;99.90;;;;;;4723375;30;20049;-78
2022/12/08 05:11:05;;;;;;;51.75;22.27;;;0.30;99.90;;;;;;4734063;30;20040;-78
2022/12/08 05:13:33;;;;;;;63.63;23.65;;;0.30;99.90;;;;;;4718424;30;20173;-78
2022/12/08 05:16:09;;;;;;;59.83;25.40;;;0.20;99.90;;;;;;4706801;30;20053;-78
2022/12/08 05:18:37;;;;;;;66.57;25.42;;;0.30;99.90;;;;;;4722826;30;20181;-78
2022/12/08 05:21:05;;;;;;;64.07;24.35;;;0.30;99.90;;;;;;4736126;30;20052;-78
2022/12/08 05:23:32;;;;;;;53.55;22.13;;;0.20;99.90;;;;;;4722661;30;20055;-78
2022/12/08 05:26:00;;;;;;;52.78;22.95;;;0.20;99.90;;;;;;4720757;30;20040;-78
2022/12/08 05:28:27;;;;;;;51.88;23.40;;;0.30;99.90;;;;;;4734069;30;20052;-78
2022/12/08 05:31:12;;;;;;;56.47;23.48;;;0.30;99.90;;;;;;4712805;30;20052;-78
2022/12/08 05:33:40;;;;;;;60.70;22.98;;;0.30;99.90;;;;;;4718087;30;20139;-78
2022/12/08 05:36:09;;;;;;;51.53;21.33;;;0.30;99.90;;;;;;4721824;30;20096;-78
2022/12/08 05:38:36;;;;;;;55.95;21.58;;;0.30;99.90;;;;;;4717144;30;20056;-78
2022/12/08 05:41:05;;;;;;;48.42;20.55;;;0.30;99.90;;;;;;4721568;30;20051;-78
2022/12/08 05:43:33;;;;;;;56.22;20.48;;;0.30;99.90;;;;;;4720678;30;20401;-78
2022/12/08 05:46:00;;;;;;;52.72;21.58;;;0.30;99.90;;;;;;4734604;30;20048;-78
2022/12/08 05:48:27;;;;;;;58.88;22.55;;;0.30;99.90;;;;;;4730101;30;20448;-78
2022/12/08 05:50:54;;;;;;;52.80;23.13;;;0.30;99.90;;;;;;4728871;30;20055;-78
2022/12/08 05:53:21;;;;;;;59.20;24.08;;;0.40;99.90;;;;;;4700697;30;20053;-78
2022/12/08 05:55:49;;;;;;;57.25;23.70;;;0.40;99.90;;;;;;4719200;30;20685;-78
2022/12/08 05:58:18;;;;;;;74.97;28.88;;;0.40;99.90;;;;;;4723741;30;20110;-78
2022/12/08 06:00:46;;;;;;;74.03;29.70;;;0.40;99.90;;;;;;4707680;30;20063;-78
2022/12/08 06:03:16;;;;;;;70.32;29.85;;;0.40;99.90;;;;;;4720933;30;20044;-78
2022/12/08 06:05:44;;;;;;;64.10;26.30;;;0.40;99.90;;;;;;4713843;30;20502;-78
2022/12/08 06:08:12;;;;;;;70.32;27.80;;;0.40;99.90;;;;;;4718357;30;20040;-78
2022/12/08 06:10:41;;;;;;;72.32;27.92;;;0.50;99.90;;;;;;4720273;30;20131;-78
2022/12/08 06:13:09;;;;;;;60.10;26.58;;;0.40;99.90;;;;;;4720246;30;20048;-78
2022/12/08 06:15:37;;;;;;;65.45;27.77;;;0.50;99.90;;;;;;4727199;30;20067;-78
2022/12/08 06:18:05;;;;;;;71.07;28.42;;;0.50;99.90;;;;;;4734381;30;20938;-78
2022/12/08 06:20:32;;;;;;;65.63;28.95;;;0.50;99.90;;;;;;4719303;30;20056;-78
2022/12/08 06:22:59;;;;;;;64.22;27.35;;;0.50;99.90;;;;;;4732728;30;20044;-78
2022/12/08 06:25:26;;;;;;;64.18;26.42;;;0.50;99.90;;;;;;4719817;30;20036;-78
2022/12/08 06:27:53;;;;;;;73.90;27.52;;;0.50;99.90;;;;;;4708242;30;20053;-78
2022/12/08 06:30:20;;;;;;;68.00;28.88;;;0.50;99.90;;;;;;4705550;30;20041;-78
2022/12/08 06:32:47;;;;;;;68.80;27.90;;;0.60;99.90;;;;;;4718425;30;20061;-78
2022/12/08 06:35:14;;;;;;;68.60;28.10;;;0.50;99.90;;;;;;4723351;30;20057;-78
2022/12/08 06:37:41;;;;;;;73.03;27.10;;;0.50;99.90;;;;;;4707922;30;20083;-78
2022/12/08 06:40:09;;;;;;;69.95;26.20;;;0.50;99.90;;;;;;4727351;30;20099;-78
2022/12/08 06:42:46;;;;;;;73.90;30.38;;;0.60;99.90;;;;;;4712981;30;20057;-78
2022/12/08 06:45:15;;;;;;;80.38;29.02;;;0.60;99.90;;;;;;4702126;30;20060;-78
2022/12/08 06:47:42;;;;;;;80.88;30.35;;;0.60;99.90;;;;;;4733741;30;20055;-78
2022/12/08 06:50:10;;;;;;;74.13;30.73;;;0.70;99.90;;;;;;4712695;30;20056;-78
2022/12/08 06:52:39;;;;;;;74.30;27.33;;;0.60;99.90;;;;;;4736347;30;20080;-78
2022/12/08 06:55:19;;;;;;;98.35;38.30;;;0.70;99.90;;;;;;4719552;30;20040;-78
2022/12/08 06:58:06;;;;;;;73.07;30.23;;;0.70;99.90;;;;;;4716819;30;20078;-78
2022/12/08 07:00:33;;;;;;;70.70;27.60;;;0.70;99.90;;;;;;4707263;30;20079;-78
2022/12/08 07:21:18;;;;;;;101.63;37.92;;;0.80;99.90;;;;;;4993669;24;20063;-78
2022/12/08 07:23:47;;;;;;;113.50;40.55;;;0.80;99.90;;;;;;4778810;29;20043;-78
2022/12/08 07:26:23;;;;;;;98.50;38.95;;;0.80;99.90;;;;;;4761883;30;20408;-78
2022/12/08 07:28:51;;;;;;;110.38;38.92;;;0.80;99.90;;;;;;4745293;30;20050;-78
2022/12/08 07:31:21;;;;;;;88.90;35.35;;;0.80;99.90;;;;;;4758352;30;20073;-79
2022/12/08 07:33:49;;;;;;;86.05;33.03;;;1.00;99.90;;;;;;4758752;30;20054;-79
2022/12/08 07:36:17;;;;;;;89.55;34.90;;;0.90;99.90;;;;;;4768047;30;20047;-79
2022/12/08 07:38:44;;;;;;;94.95;34.05;;;0.90;99.90;;;;;;4773632;30;20115;-79
2022/12/08 07:41:20;;;;;;;92.53;33.97;;;1.00;99.90;;;;;;4767822;30;20126;-79
2022/12/08 07:43:50;;;;;;;90.00;35.08;;;1.00;99.90;;;;;;4773171;30;20053;-79
2022/12/08 07:46:20;;;;;;;80.90;33.92;;;1.10;99.90;;;;;;4771746;30;20043;-79
2022/12/08 07:48:47;;;;;;;79.82;34.40;;;0.80;99.90;;;;;;4766570;30;20107;-79
2022/12/08 07:51:16;;;;;;;84.50;33.80;;;1.20;99.90;;;;;;4766726;29;20051;-79
2022/12/08 07:53:45;;;;;;;84.95;34.83;;;0.30;99.90;;;;;;4772122;30;20056;-79
2022/12/08 07:56:20;;;;;;;81.40;32.92;;;1.20;99.90;;;;;;4776547;30;20048;-79
2022/12/08 07:58:48;;;;;;;71.72;30.08;;;1.30;99.90;;;;;;4771146;30;20073;-79
2022/12/08 08:01:34;;;;;;;73.63;28.70;;;1.10;99.90;;;;;;4755674;30;20078;-79
2022/12/08 08:04:05;;;;;;;61.53;26.98;;;1.30;99.90;;;;;;4768769;30;20135;-79
2022/12/08 08:06:35;;;;;;;61.85;25.95;;;1.50;99.90;;;;;;4751995;30;21134;-79
2022/12/08 08:09:03;;;;;;;50.60;21.90;;;1.50;99.90;;;;;;4764051;30;20048;-78
2022/12/08 08:11:30;;;;;;;54.58;22.17;;;1.50;99.90;;;;;;4755369;30;20044;-78
2022/12/08 08:13:58;;;;;;;51.80;21.33;;;1.60;99.90;;;;;;4768835;30;20051;-78
2022/12/08 08:16:25;;;;;;;51.10;21.35;;;1.50;99.90;;;;;;4759986;29;20567;-78
2022/12/08 08:18:53;;;;;;;48.97;20.40;;;1.50;99.90;;;;;;4757419;30;20542;-78
2022/12/08 08:21:20;;;;;;;55.03;22.20;;;1.60;99.90;;;;;;4752387;30;20056;-78
2022/12/08 08:24:08;;;;;;;44.63;20.48;;;1.60;99.90;;;;;;4760525;30;20048;-78
2022/12/08 08:26:36;;;;;;;46.50;19.05;;;1.70;99.90;;;;;;4766271;30;20043;-78
2022/12/08 08:29:04;;;;;;;41.47;16.58;;;1.60;99.90;;;;;;4750596;30;20555;-78
2022/12/08 08:31:31;;;;;;;51.65;20.70;;;1.60;99.90;;;;;;4747488;29;20051;-79
2022/12/08 08:34:03;;;;;;;41.78;18.95;;;1.80;99.90;;;;;;4749608;30;20055;-79
2022/12/08 08:36:31;;;;;;;35.90;16.00;;;1.90;99.90;;;;;;4753141;30;20090;-79
2022/12/08 08:38:59;;;;;;;42.30;16.25;;;1.50;99.90;;;;;;4751519;29;20058;-78
2022/12/08 08:41:26;;;;;;;41.85;16.60;;;0.90;99.90;;;;;;4773235;30;20063;-78
2022/12/08 08:43:54;;;;;;;40.95;16.88;;;1.90;99.90;;;;;;4750793;30;20531;-78
2022/12/08 08:46:21;;;;;;;39.17;14.75;;;1.90;99.90;;;;;;4755371;30;20126;-78
2022/12/08 08:48:49;;;;;;;37.60;15.60;;;2.00;99.90;;;;;;4749022;30;20044;-78
2022/12/08 08:51:16;;;;;;;35.67;14.20;;;2.00;99.90;;;;;;4754750;30;20051;-78
2022/12/08 08:53:44;;;;;;;37.80;15.38;;;1.20;99.90;;;;;;4755207;30;20059;-78
2022/12/08 08:56:14;;;;;;;35.05;15.15;;;2.10;99.90;;;;;;4747129;30;20062;-79
2022/12/08 08:58:42;;;;;;;33.92;13.60;;;2.20;99.90;;;;;;4768701;30;20050;-79
2022/12/08 09:01:14;;;;;;;29.27;11.85;;;2.20;99.90;;;;;;4763252;29;20074;-79
2022/12/08 09:03:42;;;;;;;26.38;11.07;;;2.20;99.90;;;;;;4753263;30;20047;-78
2022/12/08 09:06:10;;;;;;;27.73;10.70;;;2.20;99.90;;;;;;4767683;30;20048;-79
2022/12/08 09:08:38;;;;;;;25.33;10.88;;;2.30;99.90;;;;;;4744939;30;20047;-79
2022/12/08 09:11:05;;;;;;;32.38;12.38;;;2.30;99.90;;;;;;4748505;30;20051;-78
2022/12/08 09:13:33;;;;;;;31.20;12.93;;;2.40;99.90;;;;;;4756563;30;20050;-79
2022/12/08 09:16:05;;;;;;;28.15;11.98;;;2.20;99.90;;;;;;4750443;29;20044;-78
2022/12/08 09:18:34;;;;;;;30.85;11.85;;;2.20;99.90;;;;;;4753181;30;20094;-78
2022/12/08 09:21:11;;;;;;;27.20;11.98;;;2.40;99.90;;;;;;4767506;30;20066;-78
2022/12/08 09:23:39;;;;;;;28.40;12.00;;;2.40;99.90;;;;;;4766965;30;20527;-78
2022/12/08 09:26:07;;;;;;;31.20;11.45;;;2.40;99.90;;;;;;4754381;29;20082;-79
2022/12/08 09:28:34;;;;;;;29.45;9.85;;;2.40;99.90;;;;;;4754358;30;20448;-79
2022/12/08 09:31:02;;;;;;;30.98;12.57;;;2.30;99.90;;;;;;4771667;30;20059;-79
2022/12/08 09:33:30;;;;;;;40.28;14.18;;;2.20;99.90;;;;;;4770766;30;20047;-78
2022/12/08 09:36:03;;;;;;;30.52;11.30;;;2.50;99.90;;;;;;4771532;30;20055;-78
2022/12/08 09:38:33;;;;;;;32.97;13.82;;;2.70;99.90;;;;;;4760197;30;20058;-79
2022/12/08 09:41:03;;;;;;;32.90;12.60;;;2.70;99.90;;;;;;4755818;30;20052;-79
2022/12/08 09:44:38;;;;;;;34.88;13.35;;;2.70;99.90;;;;;;4753758;30;20087;-79
2022/12/08 09:47:22;;;;;;;31.60;11.45;;;2.60;99.90;;;;;;4702512;30;20057;-79
2022/12/08 09:50:11;;;;;;;23.48;10.75;;;2.60;99.90;;;;;;4702977;30;20075;-78
2022/12/08 09:52:58;;;;;;;26.38;10.60;;;2.80;99.90;;;;;;4745015;29;20058;-78
2022/12/08 09:55:54;;;;;;;28.98;11.20;;;2.10;99.90;;;;;;4759631;29;20048;-78
2022/12/08 09:58:49;;;;;;;30.50;11.52;;;2.90;99.90;;;;;;4756395;30;22720;-78
2022/12/08 10:01:18;;;;;;;26.10;12.45;;;2.90;99.90;;;;;;4755419;30;20050;-78
2022/12/08 10:03:46;;;;;;;28.15;11.48;;;3.10;99.90;;;;;;4757845;30;20051;-79
2022/12/08 10:06:22;;;;;;;30.00;11.68;;;3.10;99.90;;;;;;4758385;30;20051;-79
2022/12/08 10:08:56;;;;;;;30.63;11.25;;;3.00;99.90;;;;;;4758700;30;20077;-79
2022/12/08 10:11:36;;;;;;;29.35;12.30;;;3.00;99.90;;;;;;4778067;29;20051;-79
2022/12/08 10:14:21;;;;;;;34.00;13.65;;;3.10;99.90;;;;;;4765395;30;20067;-79
2022/12/08 10:16:52;;;;;;;30.95;12.25;;;3.00;99.90;;;;;;4751762;29;20063;-79
2022/12/08 10:19:25;;;;;;;25.67;9.80;;;2.90;99.90;;;;;;4757245;30;20059;-79
2022/12/08 10:21:56;;;;;;;29.98;12.30;;;3.00;99.90;;;;;;4773434;30;20125;-79
2022/12/08 10:24:33;;;;;;;29.50;12.77;;;3.10;99.90;;;;;;4765988;30;20047;-79
2022/12/08 10:27:02;;;;;;;40.10;15.18;;;3.10;99.90;;;;;;4763963;29;20055;-79
2022/12/08 10:29:29;;;;;;;38.05;15.38;;;3.00;99.90;;;;;;4760581;30;20051;-79
2022/12/08 10:31:58;;;;;;;36.30;13.98;;;3.10;99.90;;;;;;4758170;30;20048;-79
2022/12/08 10:34:26;;;;;;;38.47;15.45;;;3.10;99.90;;;;;;4772130;30;20074;-79
2022/12/08 10:36:59;;;;;;;41.67;14.98;;;3.20;99.90;;;;;;4769062;29;20066;-79
2022/12/08 10:39:53;;;;;;;;;;;3.20;99.90;;;;;;4779438;30;20084;-79
2022/12/08 10:42:21;;;;;;;26.90;11.75;;;3.10;99.90;;;;;;4762536;30;19984;-79
2022/12/08 10:45:22;;;;;;;34.75;13.65;;;2.30;99.90;;;;;;4769202;30;20048;-79
2022/12/08 10:47:59;;;;;;;31.20;12.65;;;3.30;99.90;;;;;;4776420;30;20071;-79
2022/12/08 10:50:34;;;;;;;34.20;14.52;;;3.10;99.90;;;;;;4781883;30;20047;-79
2022/12/08 11:51:28;;;;;;;44.33;22.27;;;3.50;99.90;;;;;;4747857;30;20116;-78
2022/12/08 11:54:25;;;;;;;31.33;14.52;;;3.30;99.90;;;;;;4741674;30;20057;-78
2022/12/08 11:57:00;;;;;;;83.40;35.17;;;3.70;99.90;;;;;;4728870;30;20052;-78
2022/12/08 11:59:48;;;;;;;46.40;22.17;;;3.50;99.90;;;;;;4722441;30;20033;-78
2022/12/08 12:02:28;;;;;;;51.78;27.52;;;3.80;99.90;;;;;;4727778;30;20056;-78
2022/12/08 12:05:17;;;;;;;43.47;20.45;;;3.60;99.90;;;;;;4704051;30;20049;-78
2022/12/08 12:08:44;;;;;;;35.03;15.63;;;3.50;99.90;;;;;;4717649;30;20052;-78
2022/12/08 12:14:40;;;;;;;31.25;13.98;;;3.70;99.90;;;;;;4728877;30;20118;-78
2022/12/08 12:17:30;;;;;;;29.40;12.05;;;3.40;99.90;;;;;;4720302;30;20072;-78
2022/12/08 12:20:04;;;;;;;32.65;13.52;;;3.70;99.90;;;;;;4728628;30;20088;-78
2022/12/08 12:22:34;;;;;;;29.45;12.48;;;3.90;99.90;;;;;;4720361;30;20068;-78
2022/12/08 12:25:04;;;;;;;25.38;10.07;;;3.20;99.90;;;;;;4720827;30;20056;-78
2022/12/08 12:27:38;;;;;;;24.05;11.15;;;3.60;99.90;;;;;;4730462;30;20093;-78
2022/12/08 12:40:02;;;;;;;73.95;29.10;;;3.60;99.90;;;;;;5842189;24;20049;31
2022/12/08 12:42:49;;;;;;;72.20;23.40;;;3.60;99.90;;;;;;5373798;24;20038;-78
2022/12/08 14:21:50;;;;;;;41.53;19.85;;;3.40;99.90;;;;;;4726747;30;20102;-78
2022/12/08 14:24:18;;;;;;;33.92;15.35;;;3.20;99.90;;;;;;4715898;30;20057;-78
2022/12/08 14:26:46;;;;;;;37.03;15.68;;;3.40;99.90;;;;;;4717019;30;20038;-78
2022/12/08 14:29:47;;;;;;;33.13;14.13;;;3.40;99.90;;;;;;4694451;30;20385;-78
2022/12/08 14:32:38;;;;;;;33.65;14.88;;;3.40;99.90;;;;;;4719600;30;20057;-78
2022/12/08 14:46:13;;;;;;;32.37;14.60;;;3.30;99.90;;;;;;5760708;24;20038;31
2022/12/08 14:52:49;;;;;;;33.80;16.20;;;3.30;99.90;;;;;;5785069;24;20139;31
2022/12/08 14:55:17;;;;;;;35.35;15.35;;;3.10;99.90;;;;;;4730640;30;20056;-77
2022/12/08 14:57:47;;;;;;;39.92;16.02;;;3.10;99.90;;;;;;4734013;30;20052;-77
2022/12/08 15:00:20;;;;;;;35.92;15.63;;;3.40;99.90;;;;;;4735800;30;20183;-77
2022/12/08 15:02:47;;;;;;;39.78;16.38;;;3.10;99.90;;;;;;4732171;30;20053;-77
2022/12/08 15:05:17;;;;;;;38.45;16.17;;;3.20;99.90;;;;;;4744039;30;20040;-77
2022/12/08 15:07:58;;;;;;;40.83;17.90;;;3.20;99.90;;;;;;4745018;30;20052;-77
2022/12/08 15:10:29;;;;;;;42.60;18.60;;;3.20;99.90;;;;;;4741805;30;20048;-77
2022/12/08 15:13:02;;;;;;;36.58;17.52;;;3.20;99.90;;;;;;4743174;30;20052;-77
2022/12/08 15:15:31;;;;;;;39.03;15.80;;;3.10;99.90;;;;;;4750772;30;20048;-77
2022/12/08 15:18:11;;;;;;;39.42;18.35;;;2.40;99.90;;;;;;4745069;30;20056;-77
2022/12/08 15:20:43;;;;;;;40.58;17.70;;;3.10;99.90;;;;;;4747986;30;20071;-77
2022/12/08 15:23:34;;;;;;;42.58;17.08;;;3.10;99.90;;;;;;4740523;30;20053;-77
2022/12/08 15:26:04;;;;;;;39.92;18.60;;;3.10;99.90;;;;;;4731731;30;20579;-77
2022/12/08 15:28:31;;;;;;;37.22;16.92;;;3.10;99.90;;;;;;4744017;30;20047;-77
2022/12/08 15:30:59;;;;;;;42.42;19.10;;;3.00;99.90;;;;;;4742564;30;20068;-77
2022/12/08 15:33:27;;;;;;;47.63;20.75;;;3.10;99.90;;;;;;4746937;30;20472;-77
2022/12/08 15:35:54;;;;;;;47.90;19.92;;;3.00;99.90;;;;;;4728193;30;20059;-77
2022/12/08 15:38:25;;;;;;;44.55;20.50;;;3.00;99.90;;;;;;4749742;30;20059;-77
2022/12/08 15:40:53;;;;;;;61.15;22.85;;;3.10;99.90;;;;;;4731051;30;20398;-77
2022/12/08 15:43:22;;;;;;;44.03;19.58;;;3.00;99.90;;;;;;4737001;30;20528;-77
2022/12/08 15:45:50;;;;;;;54.40;21.77;;;2.40;99.90;;;;;;4713282;30;20493;-77
2022/12/08 15:48:28;;;;;;;56.28;25.42;;;3.00;99.90;;;;;;4727161;30;20533;-77
2022/12/08 15:50:57;;;;;;;65.68;24.73;;;2.90;99.90;;;;;;4730918;30;20079;-77
2022/12/08 15:53:25;;;;;;;60.85;23.65;;;3.10;99.90;;;;;;4744973;30;20131;-77
2022/12/08 15:55:53;;;;;;;50.28;22.55;;;3.00;99.90;;;;;;4734079;30;20063;-77
2022/12/08 15:58:41;;;;;;;47.63;21.75;;;3.00;99.90;;;;;;4719550;30;20060;-77
2022/12/08 16:01:25;;;;;;;47.05;19.75;;;3.00;99.90;;;;;;4757667;30;20070;-77
2022/12/08 16:03:53;;;;;;;49.75;22.42;;;3.00;99.90;;;;;;4745571;30;20052;-77
2022/12/08 16:06:44;;;;;;;48.53;18.10;;;2.90;99.90;;;;;;4732239;30;20055;-77
2022/12/08 16:09:40;;;;;;;48.03;18.35;;;3.00;99.90;;;;;;4748204;30;20068;-77
2022/12/08 16:15:23;;;;;;;46.75;20.40;;;3.00;99.90;;;;;;4748329;30;20063;-77
2022/12/08 16:18:15;;;;;;;52.05;21.20;;;3.00;99.90;;;;;;4744986;30;20139;-77
2022/12/08 16:20:43;;;;;;;55.15;22.73;;;3.00;99.90;;;;;;4741205;30;20063;-77
2022/12/08 16:23:31;;;;;;;46.92;19.88;;;1.70;99.90;;;;;;4733069;30;20484;-77
2022/12/08 16:26:15;;;;;;;44.38;18.75;;;3.20;99.90;;;;;;4744803;30;20124;-77
2022/12/08 16:29:04;;;;;;;44.47;20.13;;;3.00;99.90;;;;;;4735209;30;20040;-77
2022/12/08 16:31:32;;;;;;;55.13;23.27;;;3.10;99.90;;;;;;4745238;30;20051;-77
2022/12/08 16:33:59;;;;;;;53.47;24.45;;;2.00;99.90;;;;;;4740405;30;20131;-77